Time;durP1;ratioP1;P1;durP2;ratioP2;P2;SDS_P1;SDS_P2;PMS_P1;PMS_P2;Temp;Humidity;BMP_temperature;BMP_pressure;BME280_temperature;BME280_humidity;BME280_pressure;Samples;Min_cycle;Max_cycle;Signal;HPM_P1;HPM_P2
2022/12/24 00:01:10;;;;;;;3.47;0.90;;;15.40;74.90;;;;;;2355757;53;20975;-78
2022/12/24 00:03:36;;;;;;;5.55;0.98;;;15.40;74.90;;;;;;2341731;54;20984;-80
2022/12/24 00:06:07;;;;;;;2.53;1.10;;;15.40;74.90;;;;;;2494086;52;21316;-78
2022/12/24 00:08:33;;;;;;;2.97;0.70;;;15.40;74.70;;;;;;2370506;53;20986;-78
2022/12/24 00:11:00;;;;;;;5.85;1.10;;;15.40;74.90;;;;;;2447442;52;21364;-82
2022/12/24 00:13:26;;;;;;;5.93;1.55;;;15.40;74.90;;;;;;2351775;53;20907;-80
2022/12/24 00:15:53;;;;;;;3.22;0.90;;;15.40;74.90;;;;;;2342308;54;21531;-80
2022/12/24 00:18:19;;;;;;;3.00;0.85;;;15.40;74.90;;;;;;2474449;52;21400;-78
2022/12/24 00:20:47;;;;;;;3.58;0.95;;;15.30;74.90;;;;;;2342423;54;20994;-80
2022/12/24 00:23:14;;;;;;;3.53;0.73;;;15.30;74.80;;;;;;2476476;52;20934;-78
2022/12/24 00:25:40;;;;;;;1.55;0.57;;;15.30;75.00;;;;;;2482545;52;21625;-78
2022/12/24 00:28:06;;;;;;;5.35;0.90;;;15.30;75.00;;;;;;2408221;52;20986;-81
2022/12/24 00:30:32;;;;;;;2.12;0.90;;;15.30;75.00;;;;;;2444485;52;21490;-78
2022/12/24 00:32:59;;;;;;;1.95;0.70;;;15.30;75.00;;;;;;2348914;52;20985;-78
2022/12/24 00:35:25;;;;;;;3.15;0.95;;;15.30;75.00;;;;;;2398409;52;20915;-79
2022/12/24 00:37:51;;;;;;;2.92;0.90;;;15.30;75.00;;;;;;2354467;53;21356;-81
2022/12/24 00:40:18;;;;;;;2.10;0.80;;;15.30;75.00;;;;;;2342483;54;20935;-80
2022/12/24 00:42:45;;;;;;;5.82;1.08;;;15.30;75.00;;;;;;2342111;54;21010;-79
2022/12/24 00:45:11;;;;;;;2.22;0.70;;;15.30;75.00;;;;;;2341623;54;20954;-82
2022/12/24 00:47:37;;;;;;;2.35;0.77;;;15.30;75.00;;;;;;2588972;52;21444;-78
2022/12/24 00:50:05;;;;;;;2.15;0.70;;;15.30;74.90;;;;;;2493880;52;20982;-76
2022/12/24 00:52:31;;;;;;;3.10;0.65;;;15.30;75.00;;;;;;2397528;52;20926;-80
2022/12/24 00:54:57;;;;;;;3.20;0.88;;;15.30;75.00;;;;;;2341850;54;21527;-78
2022/12/24 00:57:23;;;;;;;3.87;0.82;;;15.20;74.90;;;;;;2460609;52;21026;-77
2022/12/24 00:59:51;;;;;;;3.33;0.70;;;15.20;75.00;;;;;;2341160;54;21446;-78
2022/12/24 01:02:17;;;;;;;3.00;0.82;;;15.20;75.00;;;;;;2338173;54;20911;-78
2022/12/24 01:07:28;;;;;;;2.80;0.85;;;15.20;75.20;;;;;;2342044;54;20938;-78
2022/12/24 01:09:54;;;;;;;1.77;0.60;;;15.20;75.20;;;;;;2341943;54;20970;-78
2022/12/24 01:12:21;;;;;;;3.28;0.88;;;15.20;75.30;;;;;;2341890;54;21842;-80
2022/12/24 01:14:47;;;;;;;3.12;0.85;;;15.20;75.30;;;;;;2370463;53;20997;-77
2022/12/24 01:17:14;;;;;;;3.53;0.90;;;15.20;75.40;;;;;;2426458;52;20938;-78
2022/12/24 01:19:40;;;;;;;3.33;0.70;;;15.20;75.40;;;;;;2342251;54;21396;-78
2022/12/24 01:22:07;;;;;;;3.22;1.05;;;15.20;75.50;;;;;;2543647;52;20947;-78
2022/12/24 01:24:33;;;;;;;3.30;0.80;;;15.20;75.50;;;;;;2342212;54;20922;-78
2022/12/24 01:26:59;;;;;;;3.55;0.80;;;15.20;75.40;;;;;;2341982;54;21042;-78
2022/12/24 01:29:26;;;;;;;3.62;0.80;;;15.20;75.40;;;;;;2341810;54;20947;-78
2022/12/24 01:31:52;;;;;;;3.45;1.12;;;15.20;75.50;;;;;;2466687;52;21415;-78
2022/12/24 01:34:19;;;;;;;2.95;0.75;;;15.20;75.50;;;;;;2422035;52;20954;-79
2022/12/24 01:36:45;;;;;;;1.80;1.02;;;15.20;75.50;;;;;;2368291;53;20911;-79
2022/12/24 01:39:11;;;;;;;4.37;0.80;;;15.20;75.50;;;;;;2587745;52;20958;-79
2022/12/24 01:44:27;;;;;;;3.62;0.90;;;15.20;75.40;;;;;;2341743;54;20998;-81
2022/12/24 01:47:30;;;;;;;3.28;0.93;;;15.30;75.30;;;;;;2558670;52;21765;-78
2022/12/24 01:49:58;;;;;;;3.78;0.68;;;15.30;74.30;;;;;;2341300;54;21431;-78
2022/12/24 01:52:30;;;;;;;2.10;0.80;;;15.20;75.10;;;;;;2587439;52;20958;-78
2022/12/24 01:54:59;;;;;;;2.95;0.82;;;15.20;75.20;;;;;;2341288;54;21403;-82
2022/12/24 01:57:28;;;;;;;2.17;0.65;;;15.20;75.10;;;;;;2456568;52;21006;-79
2022/12/24 01:59:57;;;;;;;2.28;0.70;;;15.20;75.10;;;;;;2352185;53;21281;-80
2022/12/24 02:02:24;;;;;;;3.12;0.80;;;15.20;75.00;;;;;;2356519;53;20947;-79
2022/12/24 02:05:01;;;;;;;4.15;0.70;;;15.20;75.20;;;;;;2341497;54;21032;-78
2022/12/24 02:07:28;;;;;;;4.20;0.80;;;15.20;75.10;;;;;;2353058;53;21490;-78
2022/12/24 02:09:56;;;;;;;3.65;0.80;;;15.20;75.20;;;;;;2341850;54;21449;-78
2022/12/24 02:12:23;;;;;;;3.17;0.60;;;15.20;75.20;;;;;;2371176;53;21445;-78
2022/12/24 02:14:51;;;;;;;2.28;0.80;;;15.20;75.20;;;;;;2341931;54;20915;-82
2022/12/24 02:17:48;;;;;;;4.28;0.75;;;15.20;75.20;;;;;;2341932;54;20954;-78
2022/12/24 02:21:18;;;;;;;2.15;0.55;;;15.20;74.30;;;;;;2431699;52;20914;-81
2022/12/24 02:27:11;;;;;;;3.12;0.70;;;15.20;74.50;;;;;;2371882;53;20914;-77
2022/12/24 02:31:01;;;;;;;2.42;0.60;;;15.20;73.80;;;;;;2381783;53;21051;-81
2022/12/24 02:33:48;;;;;;;4.35;0.70;;;15.20;74.20;;;;;;2341748;54;21240;-80
2022/12/24 02:36:24;;;;;;;2.37;0.65;;;15.10;74.10;;;;;;2378268;53;21278;-78
2022/12/24 02:39:20;;;;;;;2.67;0.70;;;15.10;74.50;;;;;;2341999;53;20962;-78
2022/12/24 02:42:06;;;;;;;2.45;0.70;;;15.00;74.00;;;;;;2341594;54;20956;-78
2022/12/24 02:46:26;;;;;;;2.12;0.60;;;15.00;74.60;;;;;;2345654;53;20979;-78
2022/12/24 02:48:52;;;;;;;2.03;0.60;;;15.00;73.60;;;;;;2471616;52;21317;-78
2022/12/24 02:51:22;;;;;;;1.37;0.50;;;15.00;74.70;;;;;;2341457;54;20911;-78
2022/12/24 02:53:48;;;;;;;2.37;0.73;;;15.00;74.60;;;;;;2371976;53;21065;-78
2022/12/24 02:56:46;;;;;;;1.40;0.45;;;14.90;74.60;;;;;;2341418;54;21257;-78
2022/12/24 03:00:44;;;;;;;2.03;0.60;;;14.90;74.30;;;;;;2341654;54;21002;-77
2022/12/24 03:03:37;;;;;;;3.25;0.70;;;14.90;74.20;;;;;;2539575;52;20911;-77
2022/12/24 03:06:21;;;;;;;1.62;0.50;;;14.90;74.00;;;;;;2342151;53;20891;-82
2022/12/24 03:08:57;;;;;;;1.95;0.70;;;14.80;74.30;;;;;;2342103;54;20982;-79
2022/12/24 03:11:24;;;;;;;3.17;0.65;;;14.80;74.20;;;;;;2414926;52;21044;-82
2022/12/24 03:13:51;;;;;;;2.87;0.60;;;14.80;74.60;;;;;;2588373;52;20890;-82
2022/12/24 03:16:20;;;;;;;2.42;0.52;;;14.80;74.60;;;;;;2425576;52;20907;-78
2022/12/24 03:18:47;;;;;;;1.98;0.62;;;14.70;74.50;;;;;;2341932;53;20967;-80
2022/12/24 03:21:35;;;;;;;4.40;0.80;;;14.70;74.60;;;;;;2341732;54;21296;-80
2022/12/24 03:24:01;;;;;;;2.28;0.90;;;14.70;74.00;;;;;;2356042;52;21468;-79
2022/12/24 03:26:28;;;;;;;5.03;1.00;;;14.70;75.40;;;;;;2342246;54;20990;-80
2022/12/24 03:28:55;;;;;;;4.00;1.12;;;14.70;74.80;;;;;;2341947;54;21352;-79
2022/12/24 03:31:21;;;;;;;2.83;0.82;;;14.60;74.70;;;;;;2471746;52;20938;-77
2022/12/24 03:33:47;;;;;;;3.20;0.95;;;14.60;74.80;;;;;;2372499;53;20911;-80
2022/12/24 03:36:13;;;;;;;1.60;0.60;;;14.60;74.90;;;;;;2587872;52;21375;-78
2022/12/24 03:38:40;;;;;;;2.72;0.80;;;14.60;74.90;;;;;;2587806;52;21395;-78
2022/12/24 03:41:07;;;;;;;2.87;0.70;;;14.60;74.90;;;;;;2341898;54;21411;-77
2022/12/24 03:43:33;;;;;;;2.87;0.70;;;14.60;75.00;;;;;;2400425;52;21069;-78
2022/12/24 03:46:05;;;;;;;2.60;0.82;;;14.60;75.00;;;;;;2365309;52;21407;-78
2022/12/24 03:48:32;;;;;;;2.22;0.70;;;14.60;75.00;;;;;;2341463;54;21562;-77
2022/12/24 03:51:00;;;;;;;2.40;0.75;;;14.60;75.20;;;;;;2366427;52;21232;-78
2022/12/24 03:53:26;;;;;;;2.90;1.05;;;14.60;75.30;;;;;;2341872;54;20947;-78
2022/12/24 03:55:52;;;;;;;3.60;0.90;;;14.60;75.30;;;;;;2467250;52;20975;-81
2022/12/24 03:58:19;;;;;;;4.93;1.00;;;14.60;75.30;;;;;;2348196;53;20970;-78
2022/12/24 04:00:46;;;;;;;3.10;0.90;;;14.60;75.30;;;;;;2341232;54;20926;-79
2022/12/24 04:03:13;;;;;;;3.97;0.88;;;14.60;75.40;;;;;;2535625;52;20931;-81
2022/12/24 04:05:39;;;;;;;3.83;1.00;;;14.60;75.50;;;;;;2342182;54;20978;-79
2022/12/24 04:08:05;;;;;;;2.05;0.77;;;14.60;75.40;;;;;;2348425;52;20926;-80
2022/12/24 04:10:32;;;;;;;3.42;0.70;;;14.60;75.50;;;;;;2341444;54;20978;-78
2022/12/24 04:12:59;;;;;;;3.83;0.90;;;14.60;75.50;;;;;;2354510;53;20939;-79
2022/12/24 04:15:26;;;;;;;3.53;0.80;;;14.60;75.50;;;;;;2341698;54;20987;-80
2022/12/24 04:17:52;;;;;;;2.58;0.77;;;14.60;75.50;;;;;;2471449;52;22111;-78
2022/12/24 04:20:18;;;;;;;5.87;1.10;;;14.60;75.40;;;;;;2477773;52;20958;-82
2022/12/24 04:22:45;;;;;;;3.62;0.77;;;14.60;75.30;;;;;;2441206;52;20998;-78
2022/12/24 04:25:11;;;;;;;3.50;1.02;;;14.60;75.20;;;;;;2341672;54;20986;-80
2022/12/24 04:27:37;;;;;;;3.62;0.98;;;14.60;75.20;;;;;;2504827;52;20950;-81
2022/12/24 04:30:04;;;;;;;3.10;0.93;;;14.60;75.20;;;;;;2456500;52;26585;-80
2022/12/24 04:32:31;;;;;;;2.55;0.70;;;14.60;75.10;;;;;;2523795;52;21432;-79
2022/12/24 04:34:58;;;;;;;2.67;0.80;;;14.60;75.10;;;;;;2341694;54;20974;-80
2022/12/24 04:37:24;;;;;;;2.00;0.68;;;14.60;75.20;;;;;;2475672;52;20975;-78
2022/12/24 04:39:50;;;;;;;2.42;0.90;;;14.60;75.20;;;;;;2370701;53;20907;-79
2022/12/24 04:42:17;;;;;;;5.55;1.08;;;14.60;75.20;;;;;;2341598;54;21660;-79
2022/12/24 04:44:45;;;;;;;2.22;0.70;;;14.60;75.30;;;;;;2341966;54;20981;-80
2022/12/24 04:47:11;;;;;;;4.62;0.82;;;14.60;75.30;;;;;;2341582;54;20994;-78
2022/12/24 04:49:37;;;;;;;4.75;0.68;;;14.60;75.30;;;;;;2552044;52;20907;-83
2022/12/24 04:52:04;;;;;;;1.95;0.77;;;14.60;75.30;;;;;;2402420;52;21486;-78
2022/12/24 04:54:30;;;;;;;4.30;1.05;;;14.60;75.30;;;;;;2342062;54;21483;-78
2022/12/24 04:56:56;;;;;;;2.62;0.60;;;14.60;75.20;;;;;;2363296;53;20915;-79
2022/12/24 04:59:23;;;;;;;3.03;0.90;;;14.60;75.20;;;;;;2433182;52;21450;-81
2022/12/24 05:01:50;;;;;;;2.42;0.70;;;14.60;75.20;;;;;;2341755;54;20998;-81
2022/12/24 05:04:16;;;;;;;4.37;1.00;;;14.60;75.20;;;;;;2538332;52;21484;-78
2022/12/24 05:06:43;;;;;;;2.17;0.60;;;14.60;75.10;;;;;;2439649;52;20972;-78
2022/12/24 05:09:10;;;;;;;3.10;1.00;;;14.60;75.00;;;;;;2341918;54;21018;-78
2022/12/24 05:11:38;;;;;;;3.58;1.10;;;14.60;74.90;;;;;;2448134;52;20963;-78
2022/12/24 05:14:04;;;;;;;2.78;0.85;;;14.60;74.90;;;;;;2458567;52;21478;-78
2022/12/24 05:16:30;;;;;;;2.92;0.80;;;14.60;74.90;;;;;;2422788;52;20970;-78
2022/12/24 05:18:56;;;;;;;4.47;0.80;;;14.60;74.90;;;;;;2341055;54;20931;-78
2022/12/24 05:21:23;;;;;;;4.35;0.90;;;14.50;74.70;;;;;;2427318;52;21503;-81
2022/12/24 05:26:48;;;;;;;8.00;2.35;;;14.50;74.70;;;;;;2351504;53;21498;-81
2022/12/24 05:29:14;;;;;;;5.35;1.23;;;14.50;74.30;;;;;;2344545;54;20923;-81
2022/12/24 05:31:42;;;;;;;3.85;0.90;;;14.50;74.70;;;;;;2588369;52;21006;-77
2022/12/24 05:34:08;;;;;;;3.65;0.88;;;14.50;74.70;;;;;;2359136;52;21298;-79
2022/12/24 05:36:35;;;;;;;4.90;1.00;;;14.50;74.70;;;;;;2341954;54;20974;-78
2022/12/24 05:39:01;;;;;;;6.57;1.17;;;14.50;74.70;;;;;;2341497;54;20930;-78
2022/12/24 05:41:28;;;;;;;2.42;0.80;;;14.50;74.70;;;;;;2525152;52;21006;-82
2022/12/24 05:43:54;;;;;;;5.12;1.08;;;14.50;74.70;;;;;;2341117;54;20938;-82
2022/12/24 05:46:21;;;;;;;6.28;0.90;;;14.40;74.60;;;;;;2341811;54;21073;-80
2022/12/24 05:48:48;;;;;;;4.25;1.00;;;14.50;74.70;;;;;;2341455;54;20994;-78
2022/12/24 05:51:17;;;;;;;5.60;0.90;;;14.50;74.70;;;;;;2387822;53;21270;-78
2022/12/24 05:53:43;;;;;;;3.53;1.20;;;14.50;74.70;;;;;;2342028;54;20903;-79
2022/12/24 05:56:14;;;;;;;2.80;0.88;;;14.50;74.70;;;;;;2341773;54;21009;-79
2022/12/24 05:58:41;;;;;;;7.28;1.25;;;14.40;74.60;;;;;;2345003;53;21076;-81
2022/12/24 06:01:08;;;;;;;9.68;1.73;;;14.50;74.70;;;;;;2356303;53;20947;-78
2022/12/24 06:03:35;;;;;;;5.78;1.20;;;14.40;74.70;;;;;;2404922;52;21042;-81
2022/12/24 06:06:03;;;;;;;4.65;1.02;;;14.40;74.70;;;;;;2409836;52;20935;-80
2022/12/24 06:08:29;;;;;;;2.70;0.75;;;14.40;74.70;;;;;;2588139;52;20946;-80
2022/12/24 06:11:00;;;;;;;5.62;1.08;;;14.40;74.60;;;;;;2418822;52;20935;-78
2022/12/24 06:13:26;;;;;;;5.20;0.90;;;14.40;74.60;;;;;;2341692;54;21010;-78
2022/12/24 06:15:59;;;;;;;4.82;1.05;;;14.40;74.60;;;;;;2341773;54;20922;-78
2022/12/24 06:18:25;;;;;;;4.72;1.05;;;14.40;74.30;;;;;;2420819;52;20915;-78
2022/12/24 06:20:52;;;;;;;4.70;1.00;;;14.40;74.50;;;;;;2588050;52;20966;-78
2022/12/24 06:23:19;;;;;;;4.28;1.08;;;14.40;74.50;;;;;;2588083;52;21022;-78
2022/12/24 06:25:46;;;;;;;4.82;0.98;;;14.40;74.40;;;;;;2588190;52;21010;-78
2022/12/24 06:28:13;;;;;;;3.53;0.82;;;14.40;74.40;;;;;;2314557;54;21412;-78
2022/12/24 06:30:40;;;;;;;4.95;1.12;;;14.40;74.30;;;;;;2356684;53;21383;-78
2022/12/24 06:33:06;;;;;;;6.60;1.10;;;14.40;74.30;;;;;;2314648;54;20921;-77
2022/12/24 06:35:33;;;;;;;7.40;1.15;;;14.40;74.30;;;;;;2314653;54;20956;-78
2022/12/24 06:37:59;;;;;;;5.03;1.00;;;14.40;74.30;;;;;;2314665;54;21289;-78
2022/12/24 06:40:26;;;;;;;5.22;1.27;;;14.40;74.30;;;;;;2315002;54;20973;-78
2022/12/24 06:42:53;;;;;;;6.10;1.00;;;14.30;74.20;;;;;;2314523;54;20969;-77
2022/12/24 06:45:19;;;;;;;3.55;0.90;;;14.30;74.20;;;;;;2410454;53;21418;-78
2022/12/24 06:47:46;;;;;;;5.72;1.55;;;14.30;74.20;;;;;;2314845;54;20969;-78
2022/12/24 06:50:12;;;;;;;3.00;0.80;;;14.30;74.20;;;;;;2321727;54;21376;-78
2022/12/24 06:52:39;;;;;;;5.72;1.00;;;14.30;74.90;;;;;;2315458;54;20932;-78
2022/12/24 06:55:06;;;;;;;4.43;0.98;;;14.20;74.10;;;;;;2343141;53;20969;-78
2022/12/24 06:57:32;;;;;;;4.55;0.98;;;14.20;74.10;;;;;;2315051;54;20961;-78
2022/12/24 06:59:58;;;;;;;4.95;0.85;;;14.20;74.10;;;;;;2520260;53;20965;-78
2022/12/24 07:02:25;;;;;;;5.00;0.90;;;14.20;74.20;;;;;;2315329;54;20991;-78
2022/12/24 07:04:51;;;;;;;5.12;0.90;;;14.20;74.20;;;;;;2438195;52;21340;-78
2022/12/24 07:07:17;;;;;;;4.78;1.12;;;14.20;74.20;;;;;;2587945;52;20907;-78
2022/12/24 07:09:44;;;;;;;6.62;1.20;;;14.20;74.30;;;;;;2400492;52;20919;-78
2022/12/24 07:12:11;;;;;;;4.65;1.20;;;14.20;74.30;;;;;;2341390;53;20976;-78
2022/12/24 07:14:37;;;;;;;4.70;1.33;;;14.20;74.30;;;;;;2405711;52;20914;-78
2022/12/24 07:17:03;;;;;;;6.82;1.25;;;14.10;74.20;;;;;;2357342;53;20903;-77
2022/12/24 07:19:30;;;;;;;6.10;1.12;;;14.10;74.30;;;;;;2333196;54;20926;-78
2022/12/24 07:21:59;;;;;;;5.03;1.17;;;14.20;74.40;;;;;;2473169;52;21450;-78
2022/12/24 07:24:25;;;;;;;5.60;1.25;;;14.20;74.30;;;;;;2338668;53;20887;-77
2022/12/24 07:26:51;;;;;;;4.57;1.12;;;14.20;74.50;;;;;;2581696;52;20899;-77
2022/12/24 07:29:18;;;;;;;7.32;1.73;;;14.20;74.50;;;;;;2341638;54;21420;-78
2022/12/24 07:31:44;;;;;;;7.35;1.50;;;14.20;74.50;;;;;;2315155;54;20905;-79
2022/12/24 07:34:10;;;;;;;6.07;1.12;;;14.20;74.60;;;;;;2320166;54;20975;-79
2022/12/24 07:36:36;;;;;;;4.45;1.12;;;14.20;74.70;;;;;;2311881;54;20940;-82
2022/12/24 07:39:03;;;;;;;4.12;0.80;;;14.20;74.70;;;;;;2309832;53;21421;-80
2022/12/24 07:41:29;;;;;;;7.57;1.00;;;14.20;74.70;;;;;;2317728;53;20962;-78
2022/12/24 07:43:56;;;;;;;3.80;1.20;;;14.20;74.70;;;;;;2395208;53;20961;-81
2022/12/24 07:46:31;;;;;;;5.90;1.52;;;14.20;74.70;;;;;;2324871;54;20984;-81
2022/12/24 07:48:58;;;;;;;6.15;1.02;;;14.20;74.30;;;;;;2370137;53;20921;-81
2022/12/24 07:51:24;;;;;;;4.22;1.23;;;14.20;74.70;;;;;;2570447;52;20960;-81
2022/12/24 07:53:51;;;;;;;6.37;1.23;;;14.20;74.80;;;;;;2432281;52;20921;-80
2022/12/24 07:56:17;;;;;;;6.80;1.08;;;14.20;74.90;;;;;;2339128;54;21309;-80
2022/12/24 07:58:44;;;;;;;5.80;0.90;;;14.20;74.90;;;;;;2342769;54;20978;-80
2022/12/24 08:01:10;;;;;;;3.35;0.90;;;14.20;74.90;;;;;;2342055;53;21027;-78
2022/12/24 08:03:36;;;;;;;6.95;1.02;;;14.20;74.90;;;;;;2457225;52;20975;-81
2022/12/24 08:06:03;;;;;;;4.30;1.45;;;14.20;75.00;;;;;;2411582;52;20990;-79
2022/12/24 08:08:30;;;;;;;6.20;1.27;;;14.20;75.00;;;;;;2518578;52;21349;-80
2022/12/24 08:11:08;;;;;;;7.65;1.10;;;14.30;75.20;;;;;;2371577;53;20915;-78
2022/12/24 08:13:34;;;;;;;5.78;1.30;;;14.30;75.00;;;;;;2405728;53;21618;-79
2022/12/24 08:16:00;;;;;;;4.22;1.00;;;14.30;75.20;;;;;;2336427;54;21558;-79
2022/12/24 08:18:36;;;;;;;3.75;1.00;;;14.30;75.20;;;;;;2342545;54;21237;-80
2022/12/24 08:21:02;;;;;;;4.80;1.35;;;14.30;74.80;;;;;;2588314;52;21050;-78
2022/12/24 08:23:28;;;;;;;3.55;1.00;;;14.30;75.20;;;;;;2342021;54;21825;-79
2022/12/24 08:25:54;;;;;;;2.80;0.88;;;14.40;75.40;;;;;;2346963;53;21022;-80
2022/12/24 08:28:22;;;;;;;5.25;0.95;;;14.40;75.40;;;;;;2341805;54;21772;-82
2022/12/24 08:30:49;;;;;;;5.60;1.30;;;14.40;75.40;;;;;;2339498;54;20964;-79
2022/12/24 08:33:16;;;;;;;5.40;1.90;;;14.40;75.40;;;;;;2346151;53;20998;-78
2022/12/24 08:35:49;;;;;;;5.43;1.75;;;14.40;75.40;;;;;;2337556;54;21043;-79
2022/12/24 08:38:16;;;;;;;5.60;1.70;;;14.40;75.10;;;;;;2340586;54;20927;-78
2022/12/24 08:40:43;;;;;;;6.47;1.60;;;14.40;75.40;;;;;;2342003;54;21657;-78
2022/12/24 08:43:10;;;;;;;6.12;1.52;;;14.50;75.50;;;;;;2400517;52;21754;-78
2022/12/24 08:45:38;;;;;;;5.45;1.20;;;14.50;75.50;;;;;;2587264;52;20931;-77
2022/12/24 08:48:07;;;;;;;4.40;1.20;;;14.50;75.50;;;;;;2464444;52;20914;-78
2022/12/24 08:50:33;;;;;;;6.22;1.27;;;14.60;75.60;;;;;;2414715;52;21022;-77
2022/12/24 08:53:00;;;;;;;5.40;1.10;;;14.60;75.70;;;;;;2372005;52;20943;-80
2022/12/24 08:55:38;;;;;;;3.90;1.02;;;14.60;75.70;;;;;;2342441;54;20982;-78
2022/12/24 08:58:50;;;;;;;3.87;1.10;;;14.60;75.90;;;;;;2354908;53;21118;-78
2022/12/24 09:01:18;;;;;;;5.18;1.10;;;14.70;75.00;;;;;;2341792;54;20981;-78
2022/12/24 09:03:45;;;;;;;7.22;1.27;;;14.70;75.70;;;;;;2414853;52;20999;-79
2022/12/24 09:06:12;;;;;;;7.35;1.75;;;14.70;75.80;;;;;;2347107;52;20981;-78
2022/12/24 09:08:38;;;;;;;3.83;1.20;;;14.70;75.70;;;;;;2451668;53;20956;-80
2022/12/24 09:11:09;;;;;;;7.18;1.20;;;14.80;75.80;;;;;;2341855;54;21462;-78
2022/12/24 09:13:35;;;;;;;6.72;1.42;;;14.80;75.60;;;;;;2338143;54;20935;-77
2022/12/24 09:16:02;;;;;;;5.53;1.33;;;14.80;75.70;;;;;;2341015;54;20929;-78
2022/12/24 09:18:29;;;;;;;7.20;1.42;;;14.80;75.60;;;;;;2340911;54;21499;-79
2022/12/24 09:21:03;;;;;;;7.00;1.40;;;14.80;75.60;;;;;;2337903;54;20959;-80
2022/12/24 09:23:29;;;;;;;7.00;1.67;;;14.80;75.20;;;;;;2368655;53;20911;-77
2022/12/24 09:25:55;;;;;;;4.12;1.05;;;14.90;75.60;;;;;;2427411;53;20915;-79
2022/12/24 09:28:22;;;;;;;5.72;1.20;;;14.90;75.60;;;;;;2447869;52;20982;-77
2022/12/24 09:30:59;;;;;;;6.00;1.40;;;14.90;75.60;;;;;;2342622;54;20943;-81
2022/12/24 09:33:26;;;;;;;6.78;1.70;;;14.90;75.20;;;;;;2371680;53;20930;-79
2022/12/24 09:35:53;;;;;;;6.45;1.62;;;14.90;75.60;;;;;;2418392;52;20914;-77
2022/12/24 09:38:19;;;;;;;5.80;1.55;;;15.00;75.50;;;;;;2346634;53;21038;-80
2022/12/24 09:40:45;;;;;;;7.10;1.50;;;15.00;75.50;;;;;;2447104;52;21013;-79
2022/12/24 09:43:23;;;;;;;6.90;1.48;;;15.00;75.50;;;;;;2346614;53;20986;-78
2022/12/24 09:52:39;;;;;;;5.43;1.40;;;15.00;75.00;;;;;;2525013;52;21439;-81
2022/12/24 09:55:44;;;;;;;5.12;0.98;;;15.10;74.30;;;;;;2414381;52;21011;-77
2022/12/24 09:58:25;;;;;;;5.00;1.23;;;15.10;74.40;;;;;;2373179;53;21006;-81
2022/12/24 10:00:51;;;;;;;4.90;1.30;;;15.10;75.30;;;;;;2341877;54;20935;-76
2022/12/24 10:03:18;;;;;;;6.70;1.37;;;15.10;75.80;;;;;;2304285;54;21072;-77
2022/12/24 10:09:04;;;;;;;7.18;1.52;;;15.10;75.90;;;;;;2319249;54;21477;-76
2022/12/24 10:12:08;;;;;;;6.87;1.15;;;15.10;75.50;;;;;;2315038;54;21363;-76
2022/12/24 10:14:56;;;;;;;5.45;1.23;;;15.20;76.00;;;;;;2337175;53;21493;-78
2022/12/24 10:18:00;;;;;;;4.07;1.12;;;15.30;76.10;;;;;;2315148;55;20924;-80
2022/12/24 10:20:58;;;;;;;6.28;1.40;;;15.30;75.70;;;;;;2359488;53;20948;-79
2022/12/24 10:23:43;;;;;;;7.55;1.35;;;15.30;75.60;;;;;;2407414;53;21468;-79
2022/12/24 10:29:42;;;;;;;6.78;1.90;;;15.30;75.80;;;;;;2470138;53;21488;-78
2022/12/24 10:32:31;;;;;;;3.92;1.40;;;15.50;75.30;;;;;;2588075;53;21468;-78
2022/12/24 10:35:00;;;;;;;5.53;1.42;;;15.50;75.50;;;;;;2377916;53;20985;-80
2022/12/24 10:37:27;;;;;;;5.22;1.12;;;15.50;76.30;;;;;;2353501;53;20945;-79
2022/12/24 10:39:55;;;;;;;8.77;1.52;;;15.50;76.20;;;;;;2382897;53;20985;-78
2022/12/24 10:42:24;;;;;;;6.97;1.45;;;15.60;76.40;;;;;;2342174;55;21284;-77
2022/12/24 10:44:53;;;;;;;6.35;1.60;;;15.50;76.30;;;;;;2391428;53;21477;-78
2022/12/24 10:47:20;;;;;;;8.23;1.55;;;15.60;76.30;;;;;;2314812;54;20972;-79
2022/12/24 10:51:23;;;;;;;6.57;1.77;;;15.60;76.40;;;;;;2367654;53;20968;-79
2022/12/24 10:54:05;;;;;;;6.60;1.30;;;15.70;75.20;;;;;;2306401;54;21005;-78
2022/12/24 10:56:31;;;;;;;4.67;1.20;;;15.70;76.10;;;;;;2314922;54;20998;-78
2022/12/24 10:58:58;;;;;;;5.60;1.83;;;15.70;76.60;;;;;;2499398;53;20994;-79
2022/12/24 11:01:46;;;;;;;4.82;1.15;;;15.80;77.50;;;;;;2315390;54;20979;-78
2022/12/24 11:04:19;;;;;;;6.05;1.50;;;15.90;76.30;;;;;;2426013;53;21028;-78
2022/12/24 11:07:19;;;;;;;7.40;1.40;;;15.90;76.80;;;;;;2315371;54;21430;-78
2022/12/24 11:09:57;;;;;;;6.95;1.50;;;15.90;75.70;;;;;;2555976;53;20973;-78
2022/12/24 11:12:37;;;;;;;5.75;1.23;;;15.90;76.30;;;;;;2555425;53;21017;-78
2022/12/24 11:15:23;;;;;;;6.25;1.30;;;16.00;76.40;;;;;;2402735;53;21008;-79
2022/12/24 11:17:59;;;;;;;5.37;1.30;;;16.00;76.50;;;;;;2521383;53;20945;-78
2022/12/24 11:20:26;;;;;;;5.57;1.90;;;16.10;76.30;;;;;;2316609;53;20894;-79
2022/12/24 11:22:53;;;;;;;7.87;1.73;;;16.10;76.70;;;;;;2315340;53;20961;-78
2022/12/24 11:25:26;;;;;;;6.97;1.40;;;16.10;76.60;;;;;;2315255;53;20964;-77
2022/12/24 11:27:52;;;;;;;10.05;1.83;;;16.20;76.70;;;;;;2555310;53;20917;-81
2022/12/24 11:30:29;;;;;;;6.50;1.33;;;16.20;76.60;;;;;;2314533;54;20905;-78
2022/12/24 11:33:29;;;;;;;6.97;1.45;;;16.20;76.50;;;;;;2315134;53;20936;-78
2022/12/24 11:35:59;;;;;;;6.18;1.92;;;16.30;75.30;;;;;;2554208;53;20905;-78
2022/12/24 11:38:26;;;;;;;5.10;1.35;;;16.30;76.40;;;;;;2504101;53;20952;-78
2022/12/24 11:41:03;;;;;;;4.90;1.30;;;16.30;76.30;;;;;;2314939;54;20953;-79
2022/12/24 11:43:44;;;;;;;3.60;1.27;;;16.30;75.80;;;;;;2315000;54;21032;-79
2022/12/24 11:46:12;;;;;;;4.80;1.50;;;16.30;76.00;;;;;;2445246;53;1914935;-82
2022/12/24 11:48:39;;;;;;;3.53;1.15;;;16.40;76.10;;;;;;2339289;53;21406;-77
2022/12/24 11:51:10;;;;;;;4.53;1.00;;;16.40;76.10;;;;;;2314185;54;20961;-77
2022/12/24 11:53:43;;;;;;;5.93;1.40;;;16.40;76.00;;;;;;2484401;53;20936;-79
2022/12/24 11:56:31;;;;;;;6.65;1.48;;;16.40;75.60;;;;;;2489807;53;21449;-79
2022/12/24 11:59:19;;;;;;;2.95;0.85;;;16.50;75.70;;;;;;2552526;53;20893;-78
2022/12/24 12:02:38;;;;;;;6.80;1.20;;;16.40;75.40;;;;;;2363693;53;20985;-79
2022/12/24 12:05:12;;;;;;;4.03;1.00;;;16.50;74.20;;;;;;2554700;53;21080;-79
2022/12/24 12:07:38;;;;;;;4.82;1.50;;;16.50;75.50;;;;;;2337966;53;20957;-79
2022/12/24 12:10:13;;;;;;;6.30;0.95;;;16.50;75.50;;;;;;2314348;54;21513;-77
2022/12/24 12:12:41;;;;;;;3.60;0.93;;;16.50;75.30;;;;;;2315067;54;21290;-78
2022/12/24 12:15:13;;;;;;;3.45;1.00;;;16.50;75.20;;;;;;2442711;53;130689;-83
2022/12/24 12:18:18;;;;;;;5.10;1.13;;;16.50;74.90;;;;;;2322263;53;20932;-84
2022/12/24 12:20:46;;;;;;;4.37;1.30;;;16.50;74.00;;;;;;2593075;52;20980;-83
2022/12/24 12:23:19;;;;;;;3.97;1.33;;;16.50;75.10;;;;;;2347129;53;21328;-83
2022/12/24 12:25:54;;;;;;;4.40;1.02;;;16.50;75.10;;;;;;2327785;53;20938;-83
2022/12/24 12:28:27;;;;;;;4.50;1.05;;;16.50;74.60;;;;;;2322003;53;20938;-83
2022/12/24 12:31:12;;;;;;;3.80;1.20;;;16.50;74.80;;;;;;2559056;53;20982;-83
2022/12/24 12:35:37;;;;;;;2.58;0.75;;;16.50;74.80;;;;;;2535853;53;20929;-83
2022/12/24 12:38:05;;;;;;;3.12;1.00;;;16.50;73.80;;;;;;2563335;53;21313;-82
2022/12/24 12:41:00;;;;;;;3.58;1.00;;;16.50;75.10;;;;;;2322983;53;21042;-82
2022/12/24 12:43:52;;;;;;;4.72;1.30;;;16.50;74.40;;;;;;2296925;55;21095;-86
2022/12/24 12:48:27;;;;;;;3.17;0.93;;;16.50;74.50;;;;;;2320353;53;20943;-85
2022/12/24 12:51:49;;;;;;;2.42;0.90;;;16.50;73.30;;;;;;2559503;53;21055;-85
2022/12/24 12:54:22;;;;;;;3.53;0.98;;;16.50;73.40;;;;;;2320569;53;21541;-83
2022/12/24 12:56:53;;;;;;;4.15;1.00;;;16.40;74.50;;;;;;2560389;53;21010;-84
2022/12/24 12:59:35;;;;;;;4.65;1.20;;;16.40;74.70;;;;;;2559038;53;20948;-83
2022/12/24 13:03:27;;;;;;;3.62;1.10;;;16.40;73.90;;;;;;2559431;53;21038;-83
2022/12/24 13:07:08;;;;;;;3.58;1.10;;;16.40;73.30;;;;;;2551791;53;20979;-82
2022/12/24 13:09:49;;;;;;;8.02;1.62;;;16.40;75.00;;;;;;2319716;53;20940;-83
2022/12/24 13:12:47;;;;;;;2.92;0.80;;;16.40;74.20;;;;;;2557395;53;20971;-84
2022/12/24 13:17:06;;;;;;;2.20;0.70;;;16.40;74.20;;;;;;2558537;53;20962;-83
2022/12/24 13:20:01;;;;;;;2.60;0.75;;;16.40;73.30;;;;;;2559153;53;20951;-82
2022/12/24 13:22:27;;;;;;;2.67;0.90;;;16.40;74.60;;;;;;2298287;54;20986;-83
2022/12/24 13:24:54;;;;;;;6.62;1.42;;;16.40;74.70;;;;;;2526558;53;21560;-82
2022/12/24 13:27:30;;;;;;;2.70;0.90;;;16.40;74.50;;;;;;2293194;53;21036;-82
2022/12/24 13:30:16;;;;;;;4.93;1.10;;;16.40;74.00;;;;;;2293523;54;21594;-83
2022/12/24 13:32:49;;;;;;;4.30;1.00;;;16.40;74.30;;;;;;2292758;54;20951;-80
2022/12/24 13:35:34;;;;;;;5.82;1.40;;;16.40;74.00;;;;;;2293743;54;20931;-83
2022/12/24 13:38:58;;;;;;;11.95;5.22;;;16.40;73.10;;;;;;2529135;53;21750;-82
2022/12/24 13:41:58;;;;;;;6.57;2.72;;;16.40;73.30;;;;;;2529545;53;21002;-83
2022/12/24 13:44:24;;;;;;;4.62;1.70;;;16.40;72.70;;;;;;2530425;53;20982;-83
2022/12/24 13:47:15;;;;;;;5.72;1.60;;;16.30;74.00;;;;;;2530056;54;20962;-82